createdAt,value
2022-11-27T00:02:15.192Z,7.10
2022-11-27T00:04:45.063Z,7.10
2022-11-27T00:07:14.968Z,7.10
2022-11-27T00:09:47.466Z,7.00
2022-11-27T00:12:17.306Z,7.00
2022-11-27T00:14:47.150Z,7.10
2022-11-27T00:17:16.994Z,7.10
2022-11-27T00:19:46.834Z,7.10
2022-11-27T00:22:16.729Z,7.00
2022-11-27T00:24:49.150Z,7.00
2022-11-27T00:27:19.046Z,7.10
2022-11-27T00:29:48.925Z,7.10
2022-11-27T00:32:18.863Z,7.10
2022-11-27T00:34:48.737Z,7.10
2022-11-27T00:37:18.613Z,7.00
2022-11-27T00:39:51.171Z,7.10
2022-11-27T00:42:21.058Z,7.10
2022-11-27T00:44:50.908Z,7.10
2022-11-27T00:47:20.723Z,7.00
2022-11-27T00:49:50.592Z,7.00
2022-11-27T00:52:20.446Z,7.00
2022-11-27T00:54:53.096Z,7.00
2022-11-27T00:57:22.919Z,7.10
2022-11-27T00:59:52.749Z,7.00
2022-11-27T01:02:22.681Z,7.00
2022-11-27T01:04:53.803Z,7.00
2022-11-27T01:07:23.724Z,7.00
2022-11-27T01:09:56.206Z,7.00
2022-11-27T01:12:26.070Z,7.00
2022-11-27T01:14:55.902Z,7.10
2022-11-27T01:17:25.792Z,7.00
2022-11-27T01:19:55.629Z,7.00
2022-11-27T01:22:25.589Z,7.00
2022-11-27T01:24:57.992Z,7.00
2022-11-27T01:27:27.856Z,7.10
2022-11-27T01:29:57.752Z,7.00
2022-11-27T01:32:27.627Z,7.00
2022-11-27T01:34:57.460Z,7.00
2022-11-27T01:37:27.414Z,7.00
2022-11-27T01:39:59.867Z,7.00
2022-11-27T01:42:29.715Z,7.00
2022-11-27T01:45:00.412Z,7.00
2022-11-27T01:47:42.001Z,7.00
2022-11-27T01:50:18.258Z,7.00
2022-11-27T01:52:53.454Z,7.00
2022-11-27T01:55:34.079Z,7.00
2022-11-27T01:58:10.141Z,7.00
2022-11-27T02:00:41.122Z,7.00
2022-11-27T02:03:11.065Z,7.00
2022-11-27T02:05:41.187Z,7.00
2022-11-27T02:08:14.785Z,7.00
2022-11-27T02:10:53.107Z,7.00
2022-11-27T02:13:32.192Z,7.00
2022-11-27T02:16:18.134Z,7.00
2022-11-27T02:18:58.988Z,7.00
2022-11-27T02:21:38.130Z,7.00
2022-11-27T02:24:45.010Z,6.90
2022-11-27T02:27:36.634Z,6.90
2022-11-27T02:30:11.385Z,7.00
2022-11-27T02:32:43.417Z,6.90
2022-11-27T02:35:21.050Z,6.90
2022-11-27T02:37:53.823Z,6.90
2022-11-27T02:40:32.196Z,6.90
2022-11-27T02:43:09.340Z,6.80
2022-11-27T02:45:46.221Z,6.80
2022-11-27T02:48:19.710Z,6.80
2022-11-27T02:50:51.971Z,6.80
2022-11-27T02:53:25.833Z,6.80
2022-11-27T02:55:58.487Z,6.80
2022-11-27T02:58:31.259Z,6.80
2022-11-27T03:01:06.098Z,6.70
2022-11-27T03:03:40.789Z,6.80
2022-11-27T03:06:12.491Z,6.70
2022-11-27T03:08:47.035Z,6.70
2022-11-27T03:11:19.001Z,6.70
2022-11-27T03:13:52.590Z,6.70
2022-11-27T03:16:34.629Z,6.70
2022-11-27T03:19:14.792Z,6.70
2022-11-27T03:21:47.905Z,6.60
2022-11-27T03:24:17.924Z,6.60
2022-11-27T03:26:48.286Z,6.60
2022-11-27T03:29:23.503Z,6.60
2022-11-27T03:31:56.284Z,6.60
2022-11-27T03:34:26.342Z,6.60
2022-11-27T03:36:56.297Z,6.50
2022-11-27T03:39:27.415Z,6.60
2022-11-27T03:42:08.718Z,6.50
2022-11-27T03:44:45.496Z,6.60
2022-11-27T03:47:32.227Z,6.50
2022-11-27T03:50:19.426Z,6.50
2022-11-27T03:52:58.066Z,6.50
2022-11-27T03:55:36.297Z,6.50
2022-11-27T03:58:11.686Z,6.50
2022-11-27T04:00:45.839Z,6.50
2022-11-27T04:03:26.741Z,6.40
2022-11-27T04:05:56.971Z,6.40
2022-11-27T04:08:27.387Z,6.30
2022-11-27T04:10:57.239Z,6.40
2022-11-27T04:13:27.150Z,6.40
2022-11-27T04:15:57.108Z,6.30
2022-11-27T04:18:29.625Z,6.30
2022-11-27T04:20:59.735Z,6.20
2022-11-27T04:23:29.571Z,6.20
2022-11-27T04:25:59.411Z,6.20
2022-11-27T04:28:29.278Z,6.20
2022-11-27T04:30:59.590Z,6.20
2022-11-27T04:33:32.102Z,6.20
2022-11-27T04:36:01.953Z,6.20
2022-11-27T04:38:31.820Z,6.20
2022-11-27T04:41:01.741Z,6.20
2022-11-27T04:43:31.574Z,6.10
2022-11-27T04:46:01.419Z,6.10
2022-11-27T04:48:33.834Z,6.10
2022-11-27T04:51:03.670Z,6.10
2022-11-27T04:53:33.548Z,6.00
2022-11-27T04:56:03.413Z,6.10
2022-11-27T04:58:33.249Z,6.00
2022-11-27T05:01:03.143Z,6.00
2022-11-27T05:03:35.571Z,6.00
2022-11-27T05:06:05.681Z,6.00
2022-11-27T05:08:36.171Z,6.00
2022-11-27T05:11:08.435Z,5.90
2022-11-27T05:13:38.345Z,6.00
2022-11-27T05:16:09.654Z,6.00
2022-11-27T05:18:42.086Z,6.00
2022-11-27T05:21:12.221Z,5.90
2022-11-27T05:23:42.059Z,5.90
2022-11-27T05:26:11.855Z,5.90
2022-11-27T05:28:41.888Z,5.90
2022-11-27T05:31:11.824Z,5.90
2022-11-27T05:33:44.305Z,5.90
2022-11-27T05:36:14.164Z,5.90
2022-11-27T05:38:44.523Z,5.90
2022-11-27T05:41:14.448Z,5.90
2022-11-27T05:43:44.629Z,5.90
2022-11-27T05:46:18.789Z,5.90
2022-11-27T05:48:52.205Z,5.90
2022-11-27T05:51:22.419Z,5.80
2022-11-27T05:53:52.327Z,5.80
2022-11-27T05:56:22.589Z,5.80
2022-11-27T05:58:53.578Z,5.80
2022-11-27T06:01:23.859Z,5.70
2022-11-27T06:03:56.318Z,5.60
2022-11-27T06:06:26.427Z,5.60
2022-11-27T06:08:56.253Z,5.60
2022-11-27T06:11:26.524Z,5.60
2022-11-27T06:13:56.376Z,5.60
2022-11-27T06:16:27.795Z,5.60
2022-11-27T06:19:00.289Z,5.50
2022-11-27T06:21:30.174Z,5.50
2022-11-27T06:24:00.187Z,5.50
2022-11-27T06:26:32.409Z,5.40
2022-11-27T06:29:03.868Z,5.40
2022-11-27T06:31:36.127Z,5.40
2022-11-27T06:34:09.998Z,5.40
2022-11-27T06:36:42.928Z,5.30
2022-11-27T06:39:14.400Z,5.40
2022-11-27T06:41:44.237Z,5.30
2022-11-27T06:44:14.085Z,5.30
2022-11-27T06:46:43.932Z,5.30
2022-11-27T06:49:16.369Z,5.20
2022-11-27T06:51:46.224Z,5.20
2022-11-27T06:54:16.083Z,5.20
2022-11-27T06:56:46.021Z,5.20
2022-11-27T06:59:18.936Z,5.20
2022-11-27T07:01:49.275Z,5.20
2022-11-27T07:04:21.749Z,5.10
2022-11-27T07:06:51.632Z,5.10
2022-11-27T07:09:21.501Z,5.00
2022-11-27T07:11:51.357Z,5.10
2022-11-27T07:14:21.222Z,5.10
2022-11-27T07:16:51.139Z,5.10
2022-11-27T07:19:23.571Z,5.10
2022-11-27T07:21:53.397Z,5.10
2022-11-27T07:24:23.478Z,5.10
2022-11-27T07:26:53.349Z,5.10
2022-11-27T07:29:23.181Z,5.10
2022-11-27T07:31:53.435Z,5.10
2022-11-27T07:34:26.174Z,5.10
2022-11-27T07:36:56.006Z,5.20
2022-11-27T07:39:54.063Z,5.20
2022-11-27T07:42:37.570Z,5.10
2022-11-27T07:45:07.342Z,5.10
2022-11-27T07:47:39.681Z,5.10
2022-11-27T07:50:15.083Z,5.00
2022-11-27T07:52:44.935Z,5.10
2022-11-27T07:55:14.823Z,5.00
2022-11-27T07:57:45.121Z,5.00
2022-11-27T08:00:16.529Z,5.10
2022-11-27T08:02:46.454Z,5.00
2022-11-27T08:05:19.199Z,5.10
2022-11-27T08:07:49.288Z,5.10
2022-11-27T08:10:19.546Z,5.10
2022-11-27T08:12:49.432Z,5.10
2022-11-27T08:15:19.483Z,5.20
2022-11-27T08:17:49.349Z,5.10
2022-11-27T08:20:22.352Z,5.20
2022-11-27T08:22:52.705Z,5.10
2022-11-27T08:25:22.803Z,5.10
2022-11-27T08:27:52.651Z,5.20
2022-11-27T08:30:23.808Z,5.20
2022-11-27T08:32:54.130Z,5.20
2022-11-27T08:35:26.559Z,5.20
2022-11-27T08:37:56.600Z,5.20
2022-11-27T08:40:26.434Z,5.30
2022-11-27T08:42:56.291Z,5.30
2022-11-27T08:45:26.187Z,5.30
2022-11-27T08:47:56.042Z,5.30
2022-11-27T08:50:28.734Z,5.20
2022-11-27T08:52:59.738Z,5.30
2022-11-27T08:55:29.626Z,5.30
2022-11-27T08:57:59.508Z,5.30
2022-11-27T09:00:29.459Z,5.30
2022-11-27T09:02:59.358Z,5.40
2022-11-27T09:05:32.679Z,5.40
2022-11-27T09:08:05.497Z,5.40
2022-11-27T09:10:35.383Z,5.40
2022-11-27T09:13:05.236Z,5.50
2022-11-27T09:15:35.152Z,5.60
2022-11-27T09:18:04.997Z,5.60
2022-11-27T09:20:37.481Z,5.70
2022-11-27T09:23:12.956Z,5.70
2022-11-27T09:25:44.161Z,5.70
2022-11-27T09:28:13.993Z,5.60
2022-11-27T09:30:43.867Z,5.70
2022-11-27T09:33:13.991Z,5.80
2022-11-27T09:35:46.403Z,5.80
2022-11-27T09:38:16.213Z,5.90
2022-11-27T09:40:48.133Z,5.90
2022-11-27T09:43:21.159Z,6.00
2022-11-27T09:45:56.659Z,6.00
2022-11-27T09:48:43.098Z,6.10
2022-11-27T09:51:24.194Z,6.00
2022-11-27T09:54:01.002Z,6.10
2022-11-27T09:56:32.845Z,6.20
2022-11-27T09:59:05.062Z,6.20
2022-11-27T10:01:45.321Z,6.20
2022-11-27T10:04:21.979Z,6.40
2022-11-27T10:07:16.320Z,6.40
2022-11-27T10:10:06.757Z,6.40
2022-11-27T10:12:47.916Z,6.40
2022-11-27T10:15:25.763Z,6.20
2022-11-27T10:18:04.389Z,6.30
2022-11-27T10:20:43.664Z,6.10
2022-11-27T10:23:27.455Z,6.00
2022-11-27T10:26:04.445Z,6.10
2022-11-27T10:28:40.711Z,6.00
2022-11-27T10:31:16.978Z,6.10
2022-11-27T10:33:53.426Z,6.20
2022-11-27T10:36:31.869Z,6.30
2022-11-27T10:39:06.393Z,6.40
2022-11-27T10:41:49.268Z,6.40
2022-11-27T10:44:30.800Z,6.30
2022-11-27T10:47:05.858Z,6.30
2022-11-27T10:49:38.629Z,6.40
2022-11-27T10:52:08.567Z,6.50
2022-11-27T10:54:43.216Z,6.70
2022-11-27T10:57:41.209Z,6.70
2022-11-27T11:00:16.280Z,6.80
2022-11-27T11:02:46.329Z,6.80
2022-11-27T11:08:21.157Z,6.90
2022-11-27T11:11:01.150Z,6.90
2022-11-27T11:13:32.471Z,7.10
2022-11-27T11:16:09.837Z,7.00
2022-11-27T11:18:49.041Z,7.00
2022-11-27T11:21:27.565Z,7.10
2022-11-27T11:24:02.717Z,7.10
2022-11-27T11:26:40.938Z,7.20
2022-11-27T11:29:29.946Z,7.10
2022-11-27T11:32:02.127Z,7.00
2022-11-27T11:34:33.822Z,7.00
2022-11-27T11:37:07.214Z,7.10
2022-11-27T11:39:44.694Z,7.10
2022-11-27T11:42:24.915Z,7.30
2022-11-27T11:44:57.350Z,7.40
2022-11-27T11:47:28.029Z,7.30
2022-11-27T11:49:59.558Z,7.10
2022-11-27T11:52:44.862Z,7.10
2022-11-27T11:55:22.746Z,7.10
2022-11-27T11:58:21.864Z,7.10
2022-11-27T12:01:19.360Z,7.10
2022-11-27T12:04:09.110Z,7.10
2022-11-27T12:06:56.467Z,7.40
2022-11-27T12:09:48.010Z,7.50
2022-11-27T12:12:34.835Z,7.50
2022-11-27T12:15:21.623Z,7.50
2022-11-27T12:18:01.842Z,7.70
2022-11-27T12:20:47.644Z,7.70
2022-11-27T12:23:52.427Z,7.80
2022-11-27T12:26:35.079Z,7.80
2022-11-27T12:29:36.675Z,8.00
2022-11-27T12:32:29.275Z,8.00
2022-11-27T12:35:20.396Z,7.90
2022-11-27T12:38:02.645Z,7.90
2022-11-27T12:40:48.972Z,8.00
2022-11-27T12:43:27.012Z,8.00
2022-11-27T12:46:05.666Z,8.00
2022-11-27T12:48:43.957Z,8.00
2022-11-27T12:51:19.622Z,7.90
2022-11-27T12:53:55.095Z,7.80
2022-11-27T12:56:31.711Z,7.80
2022-11-27T12:59:12.531Z,7.80
2022-11-27T13:01:47.401Z,7.90
2022-11-27T13:04:29.175Z,7.80
2022-11-27T13:07:05.945Z,7.70
2022-11-27T13:09:47.778Z,7.70
2022-11-27T13:12:29.141Z,7.70
2022-11-27T13:15:04.638Z,7.70
2022-11-27T13:17:42.662Z,7.60
2022-11-27T13:20:22.175Z,7.70
2022-11-27T13:22:53.872Z,7.60
2022-11-27T13:25:25.279Z,7.50
2022-11-27T13:27:56.699Z,7.70
2022-11-27T13:30:29.348Z,7.60
2022-11-27T13:33:02.602Z,7.70
2022-11-27T13:35:42.692Z,7.70
2022-11-27T13:38:17.413Z,7.60
2022-11-27T13:40:49.722Z,7.60
2022-11-27T13:43:28.882Z,7.50
2022-11-27T13:46:06.777Z,7.50
2022-11-27T13:48:39.762Z,7.40
2022-11-27T13:51:16.983Z,7.40
2022-11-27T13:53:46.917Z,7.30
2022-11-27T13:56:16.819Z,7.30
2022-11-27T13:58:46.782Z,7.20
2022-11-27T14:01:20.068Z,7.20
2022-11-27T14:03:51.293Z,7.20
2022-11-27T14:06:27.621Z,7.10
2022-11-27T14:09:00.966Z,7.10
2022-11-27T14:11:43.348Z,7.00
2022-11-27T14:14:21.302Z,7.00
2022-11-27T14:16:59.329Z,7.00
2022-11-27T14:19:36.617Z,6.90
2022-11-27T14:22:53.923Z,6.90
2022-11-27T14:25:29.070Z,6.80
2022-11-27T14:28:07.168Z,6.80
2022-11-27T14:30:44.303Z,6.70
2022-11-27T14:33:21.872Z,6.60
2022-11-27T14:35:53.331Z,6.60
2022-11-27T14:38:27.393Z,6.60
2022-11-27T14:41:10.416Z,6.50
2022-11-27T14:43:40.493Z,6.50
2022-11-27T14:46:18.240Z,6.40
2022-11-27T14:48:51.057Z,6.30
2022-11-27T14:51:23.851Z,6.20
2022-11-27T14:54:03.473Z,6.20
2022-11-27T14:56:36.962Z,6.10
2022-11-27T14:59:07.676Z,6.00
2022-11-27T15:01:39.782Z,5.90
2022-11-27T15:04:28.685Z,5.90
2022-11-27T15:07:00.081Z,5.80
2022-11-27T15:09:35.161Z,5.80
2022-11-27T15:12:17.944Z,5.70
2022-11-27T15:14:58.146Z,5.70
2022-11-27T15:17:31.952Z,5.70
2022-11-27T15:20:04.168Z,5.60
2022-11-27T15:22:36.886Z,5.60
2022-11-27T15:25:32.042Z,5.50
2022-11-27T15:28:02.109Z,5.50
2022-11-27T15:30:32.207Z,5.50
2022-11-27T15:33:02.251Z,5.50
2022-11-27T15:35:36.342Z,5.40
2022-11-27T15:38:13.200Z,5.40
2022-11-27T15:40:45.779Z,5.40
2022-11-27T15:43:17.524Z,5.40
2022-11-27T15:45:47.814Z,5.30
2022-11-27T15:48:20.272Z,5.30
2022-11-27T15:50:51.975Z,5.40
2022-11-27T15:53:22.432Z,5.30
2022-11-27T15:55:55.053Z,5.30
2022-11-27T15:58:25.091Z,5.20
2022-11-27T16:00:55.135Z,5.20
2022-11-27T16:03:25.233Z,5.20
2022-11-27T16:05:55.260Z,5.20
2022-11-27T16:08:25.308Z,5.10
2022-11-27T16:11:04.435Z,5.10
2022-11-27T16:13:34.541Z,5.10
2022-11-27T16:16:05.932Z,5.10
2022-11-27T16:18:37.109Z,5.00
2022-11-27T16:21:09.263Z,5.00
2022-11-27T16:23:41.067Z,5.00
2022-11-27T16:26:15.940Z,5.00
2022-11-27T16:28:45.889Z,5.00
2022-11-27T16:31:16.331Z,4.90
2022-11-27T16:33:46.232Z,5.00
2022-11-27T16:36:18.272Z,5.00
2022-11-27T16:38:49.396Z,5.00
2022-11-27T16:41:22.534Z,5.00
2022-11-27T16:43:55.353Z,5.10
2022-11-27T16:46:28.725Z,5.10
2022-11-27T16:49:00.870Z,5.00
2022-11-27T16:51:33.915Z,4.90
2022-11-27T16:54:07.831Z,5.00
2022-11-27T16:56:40.770Z,5.10
2022-11-27T16:59:12.267Z,5.00
2022-11-27T17:01:44.347Z,5.00
2022-11-27T17:04:20.930Z,4.90
2022-11-27T17:06:52.222Z,5.00
2022-11-27T17:09:24.676Z,5.00
2022-11-27T17:11:57.083Z,5.10
2022-11-27T17:14:27.476Z,5.10
2022-11-27T17:16:57.416Z,5.00
2022-11-27T17:19:29.960Z,5.00
2022-11-27T17:21:59.962Z,5.10
2022-11-27T17:24:29.820Z,5.10
2022-11-27T17:27:02.247Z,5.10
2022-11-27T17:29:33.921Z,5.10
2022-11-27T17:32:04.063Z,5.10
2022-11-27T17:34:34.155Z,5.10
2022-11-27T17:37:04.005Z,5.00
2022-11-27T17:39:34.083Z,5.00
2022-11-27T17:42:11.485Z,5.00
2022-11-27T17:44:43.156Z,5.10
2022-11-27T17:47:13.037Z,5.00
2022-11-27T17:49:43.184Z,5.00
2022-11-27T17:52:13.238Z,5.00
2022-11-27T17:54:43.084Z,5.00
2022-11-27T17:57:15.493Z,4.90
2022-11-27T17:59:45.332Z,5.00
2022-11-27T18:02:15.232Z,5.00
2022-11-27T18:04:45.154Z,5.00
2022-11-27T18:07:15.338Z,4.90
2022-11-27T18:09:45.245Z,5.00
2022-11-27T18:12:17.674Z,5.00
2022-11-27T18:14:47.673Z,4.90
2022-11-27T18:17:18.167Z,4.90
2022-11-27T18:19:48.034Z,4.90
2022-11-27T18:22:19.382Z,4.90
2022-11-27T18:24:49.311Z,4.90
2022-11-27T18:27:21.749Z,4.90
2022-11-27T18:29:51.860Z,4.90
2022-11-27T18:32:22.797Z,4.90
2022-11-27T18:34:55.687Z,4.90
2022-11-27T18:37:25.706Z,4.90
2022-11-27T18:39:55.565Z,4.90
2022-11-27T18:42:30.332Z,4.90
2022-11-27T18:45:00.397Z,4.90
2022-11-27T18:47:32.150Z,4.90
2022-11-27T18:50:03.683Z,5.00
2022-11-27T18:52:33.558Z,4.90
2022-11-27T18:55:04.764Z,4.90
2022-11-27T18:57:37.211Z,4.90
2022-11-27T19:00:08.753Z,5.00
2022-11-27T19:02:38.766Z,5.00
2022-11-27T19:05:10.048Z,5.00
2022-11-27T19:07:39.978Z,4.90
2022-11-27T19:10:11.445Z,4.90
2022-11-27T19:12:43.904Z,4.90
2022-11-27T19:15:14.049Z,4.90
2022-11-27T19:17:45.558Z,4.90
2022-11-27T19:20:16.090Z,4.90
2022-11-27T19:22:47.837Z,4.80
2022-11-27T19:25:18.141Z,4.80
2022-11-27T19:27:50.560Z,4.80
2022-11-27T19:30:21.248Z,4.80
2022-11-27T19:32:51.091Z,4.70
2022-11-27T19:35:24.571Z,4.80
2022-11-27T19:37:54.657Z,4.70
2022-11-27T19:40:24.554Z,4.70
2022-11-27T19:43:00.968Z,4.70
2022-11-27T19:45:31.317Z,4.60
2022-11-27T19:48:01.213Z,4.60
2022-11-27T19:50:31.174Z,4.50
2022-11-27T19:53:04.263Z,4.50
2022-11-27T19:55:34.658Z,4.60
2022-11-27T19:58:07.142Z,4.50
2022-11-27T20:00:37.079Z,4.50
2022-11-27T20:03:07.124Z,4.50
2022-11-27T20:05:36.971Z,4.50
2022-11-27T20:08:07.230Z,4.40
2022-11-27T20:10:37.074Z,4.40
2022-11-27T20:13:09.519Z,4.40
2022-11-27T20:15:39.660Z,4.40
2022-11-27T20:18:11.032Z,4.40
2022-11-27T20:20:40.864Z,4.50
2022-11-27T20:23:13.514Z,4.50
2022-11-27T20:25:44.000Z,4.50
2022-11-27T20:28:16.456Z,4.50
2022-11-27T20:30:46.337Z,4.50
2022-11-27T20:33:17.716Z,4.50
2022-11-27T20:35:47.606Z,4.60
2022-11-27T20:38:17.471Z,4.50
2022-11-27T20:40:47.423Z,4.50
2022-11-27T20:43:19.922Z,4.50
2022-11-27T20:45:49.796Z,4.50
2022-11-27T20:48:19.676Z,4.50
2022-11-27T20:50:51.319Z,4.50
2022-11-27T20:53:21.404Z,4.50
2022-11-27T20:55:51.319Z,4.50
2022-11-27T20:58:23.893Z,4.50
2022-11-27T21:00:53.747Z,4.50
2022-11-27T21:03:23.611Z,4.50
2022-11-27T21:05:54.018Z,4.50
2022-11-27T21:08:24.062Z,4.50
2022-11-27T21:10:53.982Z,4.50
2022-11-27T21:13:26.425Z,4.40
2022-11-27T21:15:56.276Z,4.50
2022-11-27T21:18:26.120Z,4.40
2022-11-27T21:20:55.971Z,4.40
2022-11-27T21:23:25.816Z,4.40
2022-11-27T21:25:55.637Z,4.40
2022-11-27T21:28:28.083Z,4.40
2022-11-27T21:31:00.360Z,4.30
2022-11-27T21:33:30.205Z,4.30
2022-11-27T21:36:00.107Z,4.30
2022-11-27T21:38:30.302Z,4.30
2022-11-27T21:41:00.178Z,4.30
2022-11-27T21:43:32.799Z,4.30
2022-11-27T21:46:09.293Z,4.30
2022-11-27T21:48:39.347Z,4.30
2022-11-27T21:51:12.702Z,4.20
2022-11-27T21:53:43.636Z,4.20
2022-11-27T21:56:16.598Z,4.20
2022-11-27T21:58:49.453Z,4.20
2022-11-27T22:01:24.120Z,4.20
2022-11-27T22:03:54.657Z,4.20
2022-11-27T22:06:27.009Z,4.20
2022-11-27T22:08:59.870Z,4.20
2022-11-27T22:11:32.359Z,4.10
2022-11-27T22:14:09.177Z,4.10
2022-11-27T22:16:45.272Z,4.10
2022-11-27T22:19:16.889Z,4.10
2022-11-27T22:21:48.362Z,4.10
2022-11-27T22:24:19.698Z,4.10
2022-11-27T22:26:50.748Z,4.10
2022-11-27T22:29:23.208Z,4.10
2022-11-27T22:31:55.813Z,4.10
2022-11-27T22:34:25.714Z,4.10
2022-11-27T22:36:58.792Z,4.10
2022-11-27T22:39:28.779Z,4.10
2022-11-27T22:41:58.622Z,4.00
2022-11-27T22:44:31.048Z,4.00
2022-11-27T22:47:00.854Z,4.00
2022-11-27T22:49:30.685Z,4.00
2022-11-27T22:52:00.522Z,4.00
2022-11-27T22:54:30.362Z,3.90
2022-11-27T22:57:00.192Z,3.90
2022-11-27T22:59:34.390Z,3.90
2022-11-27T23:02:05.312Z,3.90
2022-11-27T23:04:35.459Z,3.80
2022-11-27T23:07:05.335Z,3.80
2022-11-27T23:09:35.734Z,3.80
2022-11-27T23:12:06.128Z,3.80
2022-11-27T23:14:38.753Z,3.80
2022-11-27T23:17:08.701Z,3.80
2022-11-27T23:19:38.622Z,3.80
2022-11-27T23:22:08.493Z,3.80
2022-11-27T23:24:38.314Z,3.80
2022-11-27T23:27:08.166Z,3.80
2022-11-27T23:29:40.601Z,3.70
2022-11-27T23:32:10.510Z,3.80
2022-11-27T23:34:40.663Z,3.80
2022-11-27T23:37:10.739Z,3.80
2022-11-27T23:39:40.939Z,3.80
2022-11-27T23:42:10.808Z,3.70
2022-11-27T23:44:43.566Z,3.70
2022-11-27T23:47:13.639Z,3.70
2022-11-27T23:49:45.049Z,3.70
2022-11-27T23:52:17.227Z,3.70
2022-11-27T23:54:47.351Z,3.70
2022-11-27T23:57:17.244Z,3.70
2022-11-27T23:59:49.674Z,3.70
